Time;durP1;ratioP1;P1;durP2;ratioP2;P2;SDS_P1;SDS_P2;PMS_P1;PMS_P2;Temp;Humidity;BMP_temperature;BMP_pressure;BME280_temperature;BME280_humidity;BME280_pressure;Samples;Min_cycle;Max_cycle;Signal;HPM_P1;HPM_P2
2022/05/17 00:00:18;;;;;;;6.13;3.88;;;;;;;23.01;42.29;101926.47;5032935;28;20033;-75
2022/05/17 00:02:44;;;;;;;6.35;4.10;;;;;;;23.03;42.14;101932.44;5012778;28;20124;-75
2022/05/17 00:05:09;;;;;;;7.05;4.18;;;;;;;23.02;42.28;101928.13;5004170;28;20038;-74
2022/05/17 00:07:35;;;;;;;8.55;4.50;;;;;;;22.96;42.15;101924.31;5007053;28;20096;-74
2022/05/17 00:10:01;;;;;;;9.10;4.45;;;;;;;22.98;42.21;101927.66;5019134;28;20044;-74
2022/05/17 00:12:26;;;;;;;8.02;3.78;;;;;;;22.96;42.28;101932.28;5018909;28;20046;-74
2022/05/17 00:14:52;;;;;;;6.57;4.13;;;;;;;22.99;42.36;101934.63;5022644;28;20059;-74
2022/05/17 00:17:18;;;;;;;6.45;3.63;;;;;;;22.99;42.25;101937.28;5032779;28;20696;-74
2022/05/17 00:19:44;;;;;;;4.63;3.60;;;;;;;22.99;41.86;101937.28;5013094;28;20480;-74
2022/05/17 00:22:10;;;;;;;6.00;4.13;;;;;;;22.99;42.19;101931.97;5008028;28;20107;-74
2022/05/17 00:24:35;;;;;;;8.60;4.28;;;;;;;22.96;42.18;101924.31;5004079;28;20492;-75
2022/05/17 00:27:01;;;;;;;6.45;3.95;;;;;;;22.96;42.13;101919.00;5003405;28;20053;-75
2022/05/17 00:29:27;;;;;;;6.55;4.10;;;;;;;22.99;41.92;101934.63;5004266;28;20038;-75
2022/05/17 00:31:53;;;;;;;6.50;4.05;;;;;;;22.98;42.21;101932.09;5009637;28;20088;-75
2022/05/17 00:34:18;;;;;;;6.30;3.80;;;;;;;23.00;41.99;101930.97;5002098;28;20090;-75
2022/05/17 00:36:44;;;;;;;6.47;4.03;;;;;;;22.94;42.40;101931.63;5010268;28;20503;-75
2022/05/17 00:39:09;;;;;;;6.63;3.90;;;;;;;23.00;42.16;101938.09;5015571;28;20046;-74
2022/05/17 00:41:35;;;;;;;6.03;4.03;;;;;;;22.99;41.90;101939.94;5027162;28;20438;-75
2022/05/17 00:46:51;;;;;;;4.85;3.38;;;;;;;22.97;42.40;101935.78;5023934;28;20037;-74
2022/05/17 00:49:26;;;;;;;5.85;3.97;;;;;;;22.91;42.05;101926.69;5019147;28;20065;-74
2022/05/17 00:51:56;;;;;;;5.32;3.70;;;;;;;22.99;41.95;101925.81;5012567;28;20529;-75
2022/05/17 00:54:22;;;;;;;6.18;3.75;;;;;;;22.92;42.04;101913.22;5012101;28;20030;-75
2022/05/17 00:57:18;;;;;;;5.80;3.70;;;;;;;22.97;42.23;101933.13;5004378;28;20543;-74
2022/05/17 00:59:44;;;;;;;6.15;3.95;;;;;;;22.95;41.96;101920.00;5004586;28;20088;-74
2022/05/17 01:02:11;;;;;;;5.30;4.20;;;;;;;22.96;41.94;101920.84;5005675;28;20061;-75
2022/05/17 01:04:38;;;;;;;7.25;4.30;;;;;;;22.97;42.08;101925.16;5011483;28;20034;-75
2022/05/17 01:07:10;;;;;;;4.75;3.45;;;;;;;22.94;42.24;101922.84;5003658;28;20085;-74
2022/05/17 01:09:36;;;;;;;7.00;3.83;;;;;;;22.98;42.04;101927.66;5004142;28;20103;-75
2022/05/17 01:12:02;;;;;;;6.65;4.03;;;;;;;22.98;41.97;101926.81;5017971;28;20053;-74
2022/05/17 01:17:12;;;;;;;6.90;4.05;;;;;;;22.91;42.01;101929.34;5011133;28;20087;-75
2022/05/17 01:19:40;;;;;;;5.43;3.47;;;;;;;22.90;42.19;101931.16;5020713;28;20055;-74
2022/05/17 01:22:06;;;;;;;5.65;3.95;;;;;;;22.92;42.10;101933.63;5021430;28;20443;-74
2022/05/17 01:24:31;;;;;;;5.25;3.40;;;;;;;22.96;42.24;101942.09;5002780;28;20049;-75
2022/05/17 01:27:05;;;;;;;6.50;3.60;;;;;;;22.91;42.25;101929.34;5008871;28;20562;-75
2022/05/17 01:29:41;;;;;;;5.30;3.65;;;;;;;22.91;42.04;101927.50;5007948;28;20132;-75
2022/05/17 01:32:09;;;;;;;5.32;3.63;;;;;;;22.87;42.10;101931.50;5016060;28;20480;-75
2022/05/17 01:34:35;;;;;;;7.90;4.07;;;;;;;22.92;41.94;101931.00;5007907;28;20042;-74
2022/05/17 01:37:01;;;;;;;6.55;3.67;;;;;;;22.92;42.20;101933.63;5006810;28;20049;-74
2022/05/17 01:39:28;;;;;;;5.15;3.65;;;;;;;22.90;41.97;101927.69;5012073;28;20899;-75
2022/05/17 01:41:54;;;;;;;6.75;4.07;;;;;;;22.83;42.22;101911.63;5026556;28;20045;-75
2022/05/17 01:44:20;;;;;;;6.35;3.63;;;;;;;22.89;42.04;101926.03;5016525;28;20044;-74
2022/05/17 01:46:45;;;;;;;4.63;3.70;;;;;;;22.85;42.24;101917.59;5016241;28;20382;-75
2022/05/17 01:49:11;;;;;;;7.10;3.70;;;;;;;22.92;42.18;101915.88;5029405;28;20075;-74
2022/05/17 01:51:36;;;;;;;5.68;3.63;;;;;;;22.92;42.13;101928.34;5016504;28;20037;-75
2022/05/17 01:54:02;;;;;;;5.32;3.45;;;;;;;22.91;41.98;101927.50;5023426;28;20377;-74
2022/05/17 01:56:27;;;;;;;6.28;3.40;;;;;;;22.91;42.10;101927.50;5013173;28;20048;-75
2022/05/17 01:58:53;;;;;;;4.38;3.58;;;;;;;22.88;42.35;101922.53;5009690;28;20045;-75
2022/05/17 02:01:18;;;;;;;8.10;3.60;;;;;;;22.84;42.15;101915.09;5016683;28;20045;-75
2022/05/17 02:03:44;;;;;;;4.63;3.75;;;;;;;22.90;42.29;101925.84;5010704;28;20037;-75
2022/05/17 02:06:10;;;;;;;6.30;3.50;;;;;;;22.86;42.06;101921.91;5006745;28;20046;-75
2022/05/17 02:08:36;;;;;;;5.65;3.75;;;;;;;22.83;42.07;101922.25;5007875;28;20045;-75
2022/05/17 02:11:02;;;;;;;5.60;3.72;;;;;;;22.89;42.32;101923.38;5017640;28;20140;-74
2022/05/17 02:13:27;;;;;;;5.25;3.42;;;;;;;22.88;42.22;101919.88;5008907;28;20519;-75
2022/05/17 02:15:53;;;;;;;4.82;3.60;;;;;;;22.86;41.98;101918.41;5015891;28;20052;-75
2022/05/17 02:18:19;;;;;;;5.45;3.88;;;;;;;22.73;41.95;101902.16;5023721;28;20063;-74
2022/05/17 02:20:44;;;;;;;5.53;3.50;;;;;;;22.85;42.17;101914.94;5014552;28;20373;-74
2022/05/17 02:23:10;;;;;;;5.55;3.55;;;;;;;22.87;42.29;101922.72;5007529;28;20073;-74
2022/05/17 02:25:35;;;;;;;4.22;3.50;;;;;;;22.88;42.35;101922.53;5022643;28;20697;-75
2022/05/17 02:28:08;;;;;;;6.38;3.35;;;;;;;22.88;41.93;101924.38;5014117;28;20088;-76
2022/05/17 02:30:33;;;;;;;7.35;3.78;;;;;;;22.85;42.27;101922.91;5024175;28;20041;-74
2022/05/17 02:32:59;;;;;;;5.22;3.70;;;;;;;22.72;42.29;101903.16;5005729;28;20117;-74
2022/05/17 02:35:25;;;;;;;5.93;3.50;;;;;;;22.82;42.02;101915.28;5010368;28;20073;-75
2022/05/17 02:37:51;;;;;;;5.80;3.60;;;;;;;22.84;42.03;101923.06;5020326;28;20132;-74
2022/05/17 02:40:16;;;;;;;7.40;4.18;;;;;;;22.85;42.22;101922.91;5009942;28;20053;-75
2022/05/17 02:42:42;;;;;;;4.72;3.22;;;;;;;;;;5015743;28;20079;-75
2022/05/17 02:45:07;;;;;;;5.00;3.42;;;;;;;22.79;42.09;101920.06;5020410;28;20507;-75
2022/05/17 02:47:34;;;;;;;5.47;3.67;;;;;;;22.80;42.09;101919.91;5028957;28;20041;-75
2022/05/17 02:50:00;;;;;;;6.95;3.70;;;;;;;22.83;42.02;101929.38;5006740;28;20051;-74
2022/05/17 02:52:26;;;;;;;5.47;3.42;;;;;;;22.80;42.07;101922.56;5006568;28;20610;-74
2022/05/17 02:54:51;;;;;;;5.47;3.83;;;;;;;22.83;42.23;101927.56;5017331;28;20396;-75
2022/05/17 02:57:17;;;;;;;5.38;3.30;;;;;;;;;;5014638;28;20045;-74
2022/05/17 02:59:42;;;;;;;6.28;3.85;;;;;;;;;;4994837;28;20095;-75
2022/05/17 03:02:08;;;;;;;6.15;4.05;;;;;;;22.86;42.27;101939.66;5018161;28;20046;-75
2022/05/17 03:04:33;;;;;;;7.07;3.55;;;;;;;22.83;42.30;101932.88;5006295;28;20397;-74
2022/05/17 03:06:59;;;;;;;4.05;3.22;;;;;;;22.83;42.32;101937.34;5006889;28;20042;-74
2022/05/17 03:09:25;;;;;;;4.57;3.40;;;;;;;22.82;42.39;101947.16;5006992;28;20488;-74
2022/05/17 03:11:50;;;;;;;4.90;3.65;;;;;;;22.76;42.35;101931.84;5015431;28;20037;-74
2022/05/17 03:14:17;;;;;;;7.50;3.50;;;;;;;22.80;42.29;101938.50;5008901;28;20070;-75
2022/05/17 03:16:43;;;;;;;6.50;3.40;;;;;;;22.83;42.06;101950.63;5031658;28;20129;-75
2022/05/17 03:19:11;;;;;;;6.40;3.80;;;;;;;22.77;42.19;101938.81;5006335;28;20038;-75
2022/05/17 03:21:36;;;;;;;8.38;3.65;;;;;;;;;;5006145;28;20103;-75
2022/05/17 03:24:03;;;;;;;5.30;3.72;;;;;;;22.82;42.07;101952.47;5010068;28;20407;-74
2022/05/17 03:26:29;;;;;;;6.93;3.35;;;;;;;22.80;42.05;101948.25;5020240;28;20038;-74
2022/05/17 03:28:56;;;;;;;4.15;3.20;;;;;;;22.80;42.07;101957.09;5006424;28;20802;-74
2022/05/17 03:31:22;;;;;;;6.65;3.90;;;;;;;22.83;41.95;101958.59;5014595;28;20116;-74
2022/05/17 03:33:47;;;;;;;6.30;3.40;;;;;;;22.78;42.16;101951.09;5012514;28;20040;-75
2022/05/17 03:36:13;;;;;;;4.97;3.40;;;;;;;22.76;41.97;101950.44;5016586;28;20073;-74
2022/05/17 03:38:38;;;;;;;4.30;3.40;;;;;;;22.78;42.31;101956.41;5023302;28;20037;-75
2022/05/17 03:41:04;;;;;;;4.25;3.25;;;;;;;22.76;42.36;101961.06;5021518;28;20045;-74
2022/05/17 03:43:30;;;;;;;4.43;3.28;;;;;;;22.78;42.02;101956.41;5011235;28;20038;-74
2022/05/17 03:45:56;;;;;;;4.70;3.30;;;;;;;22.78;41.97;101948.44;5020917;28;20550;-75
2022/05/17 03:48:24;;;;;;;6.00;3.40;;;;;;;22.79;41.89;101951.91;5010059;28;20117;-75
2022/05/17 03:50:49;;;;;;;6.32;3.42;;;;;;;22.78;41.96;101952.91;5005032;28;20704;-75
2022/05/17 03:53:15;;;;;;;4.88;3.40;;;;;;;22.77;42.28;101951.28;5013640;28;20103;-75
2022/05/17 03:55:41;;;;;;;5.43;3.45;;;;;;;22.71;41.91;101944.81;5020705;28;20090;-75
2022/05/17 03:58:07;;;;;;;7.97;4.07;;;;;;;22.77;42.05;101960.06;5006106;28;20048;-75
2022/05/17 04:00:33;;;;;;;5.68;3.25;;;;;;;22.77;42.03;101965.38;5023876;28;20041;-74
2022/05/17 04:03:00;;;;;;;5.07;3.08;;;;;;;22.71;42.26;101951.97;5009583;28;20034;-75
2022/05/17 04:05:26;;;;;;;7.07;3.60;;;;;;;22.78;41.91;101961.72;5005606;28;20395;-75
2022/05/17 04:07:52;;;;;;;5.88;3.50;;;;;;;22.66;42.31;101952.50;5014253;28;20506;-74
2022/05/17 04:10:18;;;;;;;5.97;3.35;;;;;;;22.77;42.27;101976.00;5005451;28;20050;-75
2022/05/17 04:12:44;;;;;;;6.45;3.40;;;;;;;22.75;41.99;101971.84;5006136;28;20148;-75
2022/05/17 04:15:14;;;;;;;6.40;3.88;;;;;;;22.69;42.15;101961.94;5016260;28;20041;-75
2022/05/17 04:17:39;;;;;;;4.47;3.47;;;;;;;22.75;41.92;101967.38;5020109;28;20041;-75
2022/05/17 04:20:08;;;;;;;4.82;3.20;;;;;;;22.73;42.01;101965.91;5009520;28;20049;-75
2022/05/17 04:22:34;;;;;;;4.30;3.05;;;;;;;22.77;42.05;101978.66;5005691;28;20136;-74
2022/05/17 04:24:59;;;;;;;5.38;3.50;;;;;;;22.72;42.28;101975.69;5018397;28;20042;-74
2022/05/17 04:27:25;;;;;;;4.80;3.25;;;;;;;22.74;41.91;101978.16;5016099;28;20660;-74
2022/05/17 04:29:51;;;;;;;6.03;3.50;;;;;;;22.75;42.07;101980.66;5011760;28;20385;-75
2022/05/17 04:32:18;;;;;;;4.40;3.10;;;;;;;22.73;42.35;101973.84;5011690;28;20040;-75
2022/05/17 04:34:43;;;;;;;6.10;3.53;;;;;;;22.71;42.28;101970.56;5018855;28;20034;-74
2022/05/17 04:37:09;;;;;;;7.90;3.65;;;;;;;22.74;42.01;101984.31;5011146;28;20144;-74
2022/05/17 04:39:35;;;;;;;4.82;3.03;;;;;;;22.77;41.99;101977.81;5009630;28;20248;-75
2022/05/17 04:42:02;;;;;;;4.80;3.30;;;;;;;22.77;42.35;101983.13;5009953;28;20045;-74
2022/05/17 04:44:28;;;;;;;4.82;3.10;;;;;;;22.77;42.02;101976.00;5008311;28;20243;-74
2022/05/17 04:46:54;;;;;;;4.07;2.90;;;;;;;22.78;42.25;101974.16;5022787;28;20045;-74
2022/05/17 04:49:20;;;;;;;4.10;2.60;;;;;;;22.75;42.06;101974.50;5023724;28;20049;-75
2022/05/17 04:51:49;;;;;;;5.15;3.10;;;;;;;22.77;41.95;101986.63;5004789;28;20037;-75
2022/05/17 04:54:14;;;;;;;6.72;3.40;;;;;;;22.75;42.48;101980.66;5019378;28;20414;-74
2022/05/17 04:56:40;;;;;;;4.82;3.35;;;;;;;22.76;42.38;101984.13;5004573;28;20041;-74
2022/05/17 04:59:05;;;;;;;5.90;3.15;;;;;;;22.79;42.20;101986.44;5005149;28;20033;-74
2022/05/17 05:01:31;;;;;;;5.25;3.17;;;;;;;22.78;42.43;101988.28;5009975;28;20443;-74
2022/05/17 05:03:57;;;;;;;6.65;3.28;;;;;;;22.79;41.99;101986.44;5014867;28;20046;-74
2022/05/17 05:06:23;;;;;;;5.35;3.63;;;;;;;22.78;42.05;101993.59;5023737;28;20037;-75
2022/05/17 05:08:49;;;;;;;3.95;2.90;;;;;;;22.80;42.38;101996.06;5008914;28;20469;-76
2022/05/17 05:11:14;;;;;;;4.97;3.13;;;;;;;22.79;42.08;102000.56;5008823;28;20052;-75
2022/05/17 05:17:36;;;;;;;5.22;3.20;;;;;;;22.83;42.18;102003.75;5018144;28;20068;-74
2022/05/17 05:20:03;;;;;;;4.72;2.88;;;;;;;22.79;42.08;101995.25;5014542;28;20038;-75
2022/05/17 05:22:30;;;;;;;5.05;3.03;;;;;;;22.80;42.17;102001.38;5024338;28;20166;-75
2022/05/17 05:24:56;;;;;;;5.32;3.08;;;;;;;22.79;42.49;101995.25;5022270;28;20779;-75
2022/05/17 05:27:22;;;;;;;4.75;2.92;;;;;;;22.79;42.12;101997.88;5009723;28;20038;-75
2022/05/17 05:29:47;;;;;;;4.43;3.50;;;;;;;22.81;42.45;101998.56;5014842;28;20041;-75
2022/05/17 05:32:13;;;;;;;6.80;3.00;;;;;;;;;;5012574;28;20042;-74
2022/05/17 05:34:38;;;;;;;5.82;3.30;;;;;;;22.74;42.21;101999.41;5023758;28;20042;-74
2022/05/17 05:37:04;;;;;;;7.43;3.40;;;;;;;;;;5021228;28;20050;-74
2022/05/17 05:39:30;;;;;;;4.20;3.25;;;;;;;22.82;42.10;102000.25;5021447;28;20115;-75
2022/05/17 05:41:57;;;;;;;4.88;3.10;;;;;;;22.79;42.11;101999.72;5015842;28;20112;-74
2022/05/17 05:44:22;;;;;;;4.35;3.10;;;;;;;22.73;42.34;101987.97;5010217;28;20038;-75
2022/05/17 05:46:48;;;;;;;4.78;3.30;;;;;;;22.77;42.28;102005.22;5021737;28;20045;-75
2022/05/17 05:49:14;;;;;;;6.47;3.22;;;;;;;22.72;42.31;102004.91;5020990;28;21165;-75
2022/05/17 05:51:40;;;;;;;6.45;3.30;;;;;;;22.83;42.18;102014.38;5024754;28;20034;-75
2022/05/17 05:54:06;;;;;;;5.90;3.38;;;;;;;22.78;42.12;102008.69;5009279;28;20520;-74
2022/05/17 05:56:31;;;;;;;5.40;3.00;;;;;;;;;;5013090;28;20068;-75
2022/05/17 05:58:58;;;;;;;5.57;3.17;;;;;;;22.80;42.19;102007.53;5014820;28;20041;-75
2022/05/17 06:01:24;;;;;;;7.70;3.30;;;;;;;22.82;42.34;102007.41;5016528;28;20037;-75
2022/05/17 06:03:50;;;;;;;5.90;2.88;;;;;;;22.82;42.10;102005.56;5009380;28;20032;-74
2022/05/17 06:06:16;;;;;;;6.78;3.13;;;;;;;;;;5007424;28;20054;-75
2022/05/17 06:08:42;;;;;;;3.85;3.10;;;;;;;22.86;42.11;102020.16;5007798;28;20080;-75
2022/05/17 06:11:07;;;;;;;5.40;3.13;;;;;;;22.83;42.52;102019.69;5024319;28;20458;-75
2022/05/17 06:13:33;;;;;;;6.50;3.30;;;;;;;22.75;42.49;102006.38;5018346;28;20067;-75
2022/05/17 06:15:59;;;;;;;6.03;2.90;;;;;;;22.84;42.17;102035.44;5009253;28;20038;-74
2022/05/17 06:18:26;;;;;;;5.93;3.10;;;;;;;22.86;42.61;102037.94;5022727;28;20128;-75
2022/05/17 06:20:54;;;;;;;5.57;3.40;;;;;;;22.87;42.41;102034.28;5017037;28;20061;-75
2022/05/17 06:23:20;;;;;;;5.00;2.90;;;;;;;22.86;42.13;102044.06;5019912;28;20034;-74
2022/05/17 06:25:47;;;;;;;4.40;3.20;;;;;;;22.87;42.28;102045.72;5024874;28;20500;-74
2022/05/17 06:28:13;;;;;;;7.35;3.80;;;;;;;22.85;42.38;102052.22;5024662;28;20060;-74
2022/05/17 06:30:39;;;;;;;5.55;2.88;;;;;;;;;;5025859;28;20037;-74
2022/05/17 06:33:08;;;;;;;4.20;3.05;;;;;;;22.86;42.31;102054.69;5007881;28;20080;-74
2022/05/17 06:35:33;;;;;;;4.90;2.90;;;;;;;;;;5003131;28;20153;-75
2022/05/17 06:37:59;;;;;;;5.40;3.08;;;;;;;22.83;42.25;102060.34;5032896;28;20053;-75
2022/05/17 06:40:24;;;;;;;5.38;2.50;;;;;;;22.76;42.38;102051.34;5010143;28;20120;-75
2022/05/17 06:42:50;;;;;;;4.65;3.08;;;;;;;22.88;42.33;102062.47;5024918;28;20037;-75
2022/05/17 06:45:15;;;;;;;4.03;2.67;;;;;;;22.83;42.39;102068.31;4997910;28;20041;-75
2022/05/17 06:47:41;;;;;;;5.28;3.08;;;;;;;22.88;42.23;102076.59;5031319;28;20057;-74
2022/05/17 06:50:07;;;;;;;4.95;2.92;;;;;;;22.94;42.06;102085.69;5019120;28;20049;-75
2022/05/17 06:52:34;;;;;;;6.15;3.10;;;;;;;22.94;42.11;102087.53;5008532;28;20041;-74
2022/05/17 06:55:00;;;;;;;5.50;2.72;;;;;;;22.92;41.86;102085.03;5009048;28;20045;-75
2022/05/17 06:57:26;;;;;;;3.55;2.55;;;;;;;22.91;41.91;102086.88;5006343;28;20037;-76
2022/05/17 06:59:51;;;;;;;4.10;2.50;;;;;;;22.91;42.06;102078.06;5023614;28;20050;-75
2022/05/17 07:02:17;;;;;;;4.72;3.03;;;;;;;22.95;41.97;102082.03;5008337;28;20183;-75
2022/05/17 07:04:42;;;;;;;4.63;2.90;;;;;;;22.97;41.74;102087.19;5006967;28;20034;-75
2022/05/17 07:07:08;;;;;;;4.20;2.90;;;;;;;22.98;41.79;102086.19;5015418;28;20065;-74
2022/05/17 07:09:36;;;;;;;4.82;2.70;;;;;;;23.03;41.80;102083.88;5016534;28;20041;-75
2022/05/17 07:14:46;;;;;;;4.85;2.92;;;;;;;23.03;42.12;102092.66;5015435;28;20488;-75
2022/05/17 07:17:17;;;;;;;3.97;2.70;;;;;;;23.04;41.98;102091.66;5014406;28;20053;-75
2022/05/17 07:19:44;;;;;;;3.80;2.80;;;;;;;23.06;41.75;102091.50;5009265;28;20045;-74
2022/05/17 07:22:10;;;;;;;3.75;2.95;;;;;;;23.05;41.89;102092.50;5018407;28;20041;-75
2022/05/17 07:24:37;;;;;;;4.22;2.80;;;;;;;23.09;41.65;102096.47;5017594;28;20053;-75
2022/05/17 07:27:05;;;;;;;3.58;2.63;;;;;;;23.10;41.86;102103.44;5036742;28;20617;-74
2022/05/17 07:29:32;;;;;;;3.28;2.60;;;;;;;23.09;41.65;102104.44;5012117;28;20136;-75
2022/05/17 07:31:57;;;;;;;5.30;2.55;;;;;;;23.05;41.76;102093.31;5008880;28;20876;-75
2022/05/17 07:34:23;;;;;;;3.80;2.70;;;;;;;23.15;41.81;102115.19;5007495;28;20124;-74
2022/05/17 07:36:49;;;;;;;2.90;2.47;;;;;;;23.17;41.73;102104.41;5010451;28;20091;-75
2022/05/17 07:39:14;;;;;;;6.97;2.90;;;;;;;23.14;41.73;102104.72;5021730;28;20033;-75
2022/05/17 07:41:41;;;;;;;3.88;2.70;;;;;;;23.17;41.59;102112.38;5013545;28;20144;-74
2022/05/17 07:44:07;;;;;;;3.08;2.40;;;;;;;23.19;41.54;102108.56;5008408;28;20125;-75
2022/05/17 07:46:33;;;;;;;4.28;2.40;;;;;;;23.20;41.97;102114.69;5031425;28;20068;-75
2022/05/17 07:48:59;;;;;;;4.30;2.40;;;;;;;23.20;41.81;102112.88;5016169;28;20077;-74
2022/05/17 07:51:27;;;;;;;4.25;2.80;;;;;;;23.20;41.44;102101.41;5014818;28;20457;-75
2022/05/17 07:53:53;;;;;;;4.38;2.55;;;;;;;23.26;41.66;102108.69;5011294;28;20065;-75
2022/05/17 07:56:19;;;;;;;3.63;2.63;;;;;;;23.26;41.52;102114.00;5005597;28;20080;-75
2022/05/17 07:58:45;;;;;;;3.30;2.47;;;;;;;23.27;41.66;102110.34;5007952;28;20042;-75
2022/05/17 08:01:12;;;;;;;4.25;2.85;;;;;;;23.25;41.62;102108.88;5007402;28;20038;-75
2022/05/17 08:03:38;;;;;;;5.72;2.80;;;;;;;23.30;41.24;102117.16;5012578;28;20034;-75
2022/05/17 08:06:03;;;;;;;3.47;2.47;;;;;;;23.28;41.59;102116.50;5031891;28;20045;-75
2022/05/17 08:08:29;;;;;;;5.60;2.60;;;;;;;23.33;41.47;102124.78;5015974;28;20124;-75
2022/05/17 08:10:55;;;;;;;5.28;2.53;;;;;;;23.33;41.64;102119.44;5007435;28;20037;-75
2022/05/17 08:13:22;;;;;;;3.05;2.47;;;;;;;23.33;41.37;102120.28;5020387;28;20049;-75
2022/05/17 08:15:49;;;;;;;3.63;2.47;;;;;;;23.33;41.47;102124.78;5016930;28;20064;-75
2022/05/17 08:18:16;;;;;;;4.32;2.60;;;;;;;23.32;41.48;102117.78;5009719;28;20132;-75
2022/05/17 08:20:42;;;;;;;5.45;2.70;;;;;;;23.36;41.46;102119.13;5008300;28;20045;-74
2022/05/17 08:23:08;;;;;;;2.80;2.50;;;;;;;23.33;41.37;102117.63;5034565;28;20037;-75
2022/05/17 08:28:17;;;;;;;2.97;2.35;;;;;;;23.36;41.32;102121.78;5006907;28;20053;-75
2022/05/17 08:30:43;;;;;;;5.68;2.90;;;;;;;23.40;41.37;102131.91;5020723;28;20049;-75
2022/05/17 08:33:15;;;;;;;4.20;2.50;;;;;;;23.38;41.39;102128.59;5022858;28;20507;-75
2022/05/17 08:35:51;;;;;;;3.15;2.45;;;;;;;23.40;41.38;102131.06;5005444;28;20129;-75
2022/05/17 08:38:27;;;;;;;4.90;2.45;;;;;;;23.44;41.58;102121.75;5005965;28;20618;-75
2022/05/17 08:40:55;;;;;;;4.28;2.70;;;;;;;23.43;41.41;102120.09;5017865;28;20044;-75
2022/05/17 08:43:29;;;;;;;4.47;2.70;;;;;;;23.41;41.44;102116.78;5012768;28;20454;-75
2022/05/17 08:46:16;;;;;;;4.03;2.30;;;;;;;23.45;41.58;102124.22;5023327;28;20861;-74
2022/05/17 08:48:55;;;;;;;4.00;2.40;;;;;;;23.40;41.07;102117.78;5025622;28;20026;-75
2022/05/17 08:51:44;;;;;;;4.65;2.67;;;;;;;23.48;41.13;102133.69;5012929;28;20379;-75
2022/05/17 08:54:41;;;;;;;4.22;2.50;;;;;;;23.46;41.29;102133.03;5006436;28;20045;-75
2022/05/17 08:57:10;;;;;;;4.68;2.70;;;;;;;23.48;41.24;102136.34;5001053;28;20571;-75
2022/05/17 08:59:36;;;;;;;3.47;2.50;;;;;;;23.48;41.20;102131.03;5015455;28;20038;-75
2022/05/17 09:02:11;;;;;;;3.42;2.40;;;;;;;23.50;41.34;102132.50;5006590;28;20761;-75
2022/05/17 09:04:36;;;;;;;3.08;2.30;;;;;;;23.49;41.25;102140.66;5013809;28;20100;-75
2022/05/17 09:07:14;;;;;;;4.80;2.60;;;;;;;23.50;41.17;102135.16;5006689;28;20038;-75
2022/05/17 09:10:01;;;;;;;4.20;2.38;;;;;;;23.48;41.48;102123.06;5020840;28;20096;-75
2022/05/17 09:12:45;;;;;;;5.15;2.42;;;;;;;23.51;41.41;102128.84;5011029;28;20141;-75
2022/05/17 09:15:15;;;;;;;4.80;2.80;;;;;;;23.44;41.16;102116.44;5022484;28;20484;-75
2022/05/17 09:17:41;;;;;;;;;;;;;;;23.50;41.20;102127.19;5014680;28;20491;-75
2022/05/17 09:20:09;;;;;;;5.00;2.53;;;;;;;23.51;41.22;102128.03;5021889;28;19942;-75
2022/05/17 09:22:36;;;;;;;3.05;2.40;;;;;;;23.55;41.23;102136.50;5040806;28;20053;-74
2022/05/17 09:25:20;;;;;;;3.53;2.30;;;;;;;23.55;41.37;102133.84;5020985;28;20065;-75
2022/05/17 09:27:52;;;;;;;3.65;2.40;;;;;;;23.54;41.23;102137.50;5006911;28;20629;-75
2022/05/17 09:30:23;;;;;;;6.03;2.60;;;;;;;23.51;41.58;102138.66;5013973;28;20064;-75
2022/05/17 09:33:04;;;;;;;3.90;2.63;;;;;;;23.54;41.28;102134.84;5020706;28;20042;-75
2022/05/17 09:35:31;;;;;;;3.70;2.60;;;;;;;23.48;41.36;102131.84;5005740;28;20038;-75
2022/05/17 09:38:03;;;;;;;3.70;2.22;;;;;;;23.53;41.26;102144.66;5013979;28;20049;-75
2022/05/17 09:40:32;;;;;;;4.93;2.70;;;;;;;23.55;41.17;102144.47;5006075;28;20045;-75
2022/05/17 09:43:01;;;;;;;4.28;2.45;;;;;;;23.56;41.22;102141.66;5006504;28;20424;-75
2022/05/17 09:45:39;;;;;;;4.80;2.38;;;;;;;23.54;41.21;102148.13;5037309;28;20088;-75
2022/05/17 09:48:09;;;;;;;3.97;2.42;;;;;;;23.50;41.48;102137.81;5016907;28;20048;-75
2022/05/17 09:53:51;;;;;;;3.60;2.60;;;;;;;23.43;41.20;102122.75;5009360;28;20140;-75
2022/05/17 09:56:25;;;;;;;3.90;2.38;;;;;;;23.59;41.32;102148.47;5011756;28;20137;-76
2022/05/17 09:58:50;;;;;;;3.58;2.47;;;;;;;23.58;41.11;102145.00;5022301;28;20049;-75
2022/05/17 10:01:19;;;;;;;4.97;2.30;;;;;;;23.58;41.14;102146.81;5011068;28;20065;-75
2022/05/17 10:04:05;;;;;;;5.03;2.40;;;;;;;23.57;41.33;102143.34;5015976;28;20025;-75
2022/05/17 10:06:55;;;;;;;3.00;2.35;;;;;;;23.57;41.22;102142.50;5014590;28;20033;-75
2022/05/17 10:09:33;;;;;;;3.40;2.60;;;;;;;23.55;41.21;102144.47;5019763;28;20048;-75
2022/05/17 10:12:05;;;;;;;3.05;2.13;;;;;;;23.56;41.35;102143.47;5013893;28;20557;-75
2022/05/17 10:14:44;;;;;;;4.28;2.63;;;;;;;23.54;41.40;102140.16;5022183;28;20045;-75
2022/05/17 10:17:27;;;;;;;5.07;2.60;;;;;;;23.60;41.30;102142.16;5022684;28;20045;-74
2022/05/17 10:20:01;;;;;;;3.33;2.50;;;;;;;23.56;40.97;102133.66;5017375;28;20042;-74
2022/05/17 10:22:52;;;;;;;3.55;2.10;;;;;;;23.61;41.03;102127.84;5025544;28;20065;-75
2022/05/17 10:25:25;;;;;;;2.70;2.38;;;;;;;23.60;41.33;102135.00;5017325;28;20556;-75
2022/05/17 10:28:01;;;;;;;4.28;2.20;;;;;;;23.60;40.97;102124.38;4991929;28;20096;-75
2022/05/17 10:30:40;;;;;;;4.40;2.55;;;;;;;23.56;41.31;102115.06;5022363;28;20070;-75
2022/05/17 10:33:14;;;;;;;3.92;2.22;;;;;;;23.60;41.25;102128.84;5013785;28;20053;-75
2022/05/17 10:35:45;;;;;;;5.25;2.67;;;;;;;23.55;41.25;102118.72;5021508;28;20475;-75
2022/05/17 10:38:26;;;;;;;3.60;2.50;;;;;;;23.60;41.19;102123.53;5017826;28;20116;-74
2022/05/17 10:40:55;;;;;;;2.80;2.05;;;;;;;23.60;41.25;102127.03;5016669;28;20095;-75
2022/05/17 10:43:30;;;;;;;2.80;2.30;;;;;;;23.58;41.15;102122.88;5008792;28;20046;-75
2022/05/17 10:46:10;;;;;;;3.78;2.35;;;;;;;23.60;41.30;102134.19;5014936;28;20029;-76
2022/05/17 10:49:12;;;;;;;3.55;2.45;;;;;;;23.61;41.16;102131.34;5021021;28;20068;-77
2022/05/17 10:51:52;;;;;;;3.75;2.22;;;;;;;23.57;41.33;102123.88;5012800;28;20064;-75
2022/05/17 10:54:34;;;;;;;5.43;2.78;;;;;;;23.61;41.38;102130.50;5018760;28;20041;-76
2022/05/17 10:57:33;;;;;;;3.85;2.42;;;;;;;23.59;41.22;102128.03;5015474;28;20084;-74
2022/05/17 11:00:01;;;;;;;4.78;2.40;;;;;;;23.62;41.25;102127.69;5017738;28;20044;-74
2022/05/17 11:03:01;;;;;;;6.40;2.50;;;;;;;23.61;41.38;102127.84;5021044;28;21554;-70
2022/05/17 11:05:30;;;;;;;5.78;3.58;;;;;;;23.63;41.24;102129.34;5018986;28;20463;-74
2022/05/17 11:08:10;;;;;;;2.58;2.30;;;;;;;23.64;41.34;102119.53;5016732;28;20148;-75
2022/05/17 11:10:45;;;;;;;2.90;2.50;;;;;;;23.59;41.25;102117.41;5020698;28;20492;-74
2022/05/17 11:13:24;;;;;;;4.90;2.35;;;;;;;23.60;41.29;102119.06;5022103;28;20048;-73
2022/05/17 11:15:56;;;;;;;4.13;2.50;;;;;;;23.56;41.01;102112.41;5016883;28;20476;-73
2022/05/17 11:19:19;;;;;;;4.03;2.50;;;;;;;23.60;41.04;102118.22;5019255;28;20447;-73
2022/05/17 11:21:58;;;;;;;4.47;2.50;;;;;;;23.59;41.25;102119.22;4959008;28;20046;-72
2022/05/17 11:24:45;;;;;;;4.45;2.67;;;;;;;23.63;41.15;102117.88;5011021;28;20532;-72
2022/05/17 11:27:29;;;;;;;4.68;2.42;;;;;;;23.63;41.15;102115.22;5020964;28;20175;-72
2022/05/17 11:30:09;;;;;;;3.03;2.10;;;;;;;23.60;41.19;102113.72;5017658;28;20079;-73
2022/05/17 11:32:40;;;;;;;4.60;2.65;;;;;;;23.57;41.34;102098.13;5016513;28;20388;-72
2022/05/17 11:35:51;;;;;;;3.80;2.40;;;;;;;23.56;41.08;102109.75;5014341;28;20045;-72
2022/05/17 11:38:39;;;;;;;3.72;2.50;;;;;;;23.61;41.18;102101.25;4934730;28;20505;-72
2022/05/17 11:41:33;;;;;;;4.28;2.55;;;;;;;23.61;41.09;102104.75;4942097;28;20051;-71
2022/05/17 11:44:07;;;;;;;4.38;2.55;;;;;;;23.62;41.23;102106.41;5006503;28;20073;-74
2022/05/17 11:46:34;;;;;;;3.72;2.35;;;;;;;23.62;41.01;102108.25;5016590;28;20465;-73
2022/05/17 11:49:12;;;;;;;4.20;2.47;;;;;;;23.63;41.11;102101.91;5010275;28;20604;-73
2022/05/17 11:51:59;;;;;;;3.70;2.22;;;;;;;23.67;41.02;102100.56;5016921;28;20869;-73
2022/05/17 11:54:46;;;;;;;5.05;2.60;;;;;;;23.64;41.04;102098.25;5013826;28;20030;-73
2022/05/17 11:57:37;;;;;;;4.82;2.47;;;;;;;23.63;41.11;102101.91;5013302;28;20038;-73
2022/05/17 12:00:29;;;;;;;3.25;2.10;;;;;;;23.64;41.00;102096.41;5017128;28;20452;-73